Time;durP1;ratioP1;P1;durP2;ratioP2;P2;SDS_P1;SDS_P2;PMS_P1;PMS_P2;Temp;Humidity;BMP_temperature;BMP_pressure;BME280_temperature;BME280_humidity;BME280_pressure;Samples;Min_cycle;Max_cycle;Signal;HPM_P1;HPM_P2
2022/07/17 00:02:01;;;;;;;;;4.50;4.00;;;;;23.87;34.11;101779.03;5113874;27;44980;-83
2022/07/17 00:04:26;;;;;;;;;4.00;4.00;;;;;24.29;34.79;101861.25;5114467;27;46419;-83
2022/07/17 00:06:51;;;;;;;;;4.50;4.50;;;;;24.09;34.50;101842.53;5114493;27;44994;-82
2022/07/17 00:09:17;;;;;;;;;4.00;3.00;;;;;24.26;34.62;101876.47;5114015;27;44916;-85
2022/07/17 00:11:42;;;;;;;;;3.00;3.00;;;;;24.17;34.54;101867.53;5113653;27;45127;-84
2022/07/17 00:14:07;;;;;;;;;3.25;3.25;;;;;24.12;34.75;101857.72;5113756;27;45587;-82
2022/07/17 00:16:33;;;;;;;;;3.50;3.50;;;;;24.23;34.94;101885.41;5113567;27;45031;-85
2022/07/17 00:18:58;;;;;;;;;3.00;3.00;;;;;24.16;35.27;101879.19;5113801;27;45479;-84
2022/07/17 00:21:23;;;;;;;;;5.25;4.25;;;;;24.03;34.91;101855.94;5114178;27;45146;-83
2022/07/17 00:23:49;;;;;;;;;4.00;4.00;;;;;24.00;35.26;101853.28;5113256;27;45362;-85
2022/07/17 00:26:14;;;;;;;;;3.00;3.00;;;;;24.00;35.38;101861.34;5127398;27;45009;-83
2022/07/17 00:28:39;;;;;;;;;4.00;3.75;;;;;24.03;35.12;101869.38;5114236;27;45139;-86
2022/07/17 00:31:05;;;;;;;;;3.50;3.50;;;;;23.90;35.31;101849.72;5112943;27;45053;-85
2022/07/17 00:33:30;;;;;;;;;4.50;4.25;;;;;24.02;35.50;101880.13;5113101;27;45249;-85
2022/07/17 00:35:56;;;;;;;;;4.00;3.50;;;;;23.88;35.74;101856.00;5112188;27;45069;-83
2022/07/17 00:38:21;;;;;;;;;4.25;4.00;;;;;23.99;35.24;101874.75;5109841;27;45340;-83
2022/07/17 00:40:46;;;;;;;;;3.00;3.00;;;;;23.89;35.55;101857.78;5112540;27;45022;-83
2022/07/17 00:43:12;;;;;;;;;3.00;3.00;;;;;23.88;35.69;101856.00;5113998;27;45280;-82
2022/07/17 00:45:37;;;;;;;;;3.50;3.50;;;;;23.77;35.57;101844.41;5109869;27;45440;-83
2022/07/17 00:48:05;;;;;;;;;4.25;4.25;;;;;23.84;35.64;101871.25;5111641;27;45392;-85
2022/07/17 00:50:37;;;;;;;;;4.00;3.75;;;;;23.77;35.78;101857.81;5111874;27;45018;-86
2022/07/17 00:53:03;;;;;;;;;4.75;4.75;;;;;23.78;35.88;101860.50;5127379;27;48652;-84
2022/07/17 00:55:29;;;;;;;;;3.75;3.50;;;;;23.69;35.97;101855.13;5113275;27;45456;-85
2022/07/17 00:57:57;;;;;;;;;4.00;3.25;;;;;23.69;35.73;101860.50;5112905;27;45339;-83
2022/07/17 01:00:23;;;;;;;;;4.75;4.25;;;;;23.67;35.96;101865.00;5113638;27;45074;-83
2022/07/17 01:02:52;;;;;;;;;3.00;3.00;;;;;23.51;35.52;101845.31;5111769;27;46171;-84
2022/07/17 01:05:18;;;;;;;;;4.75;3.00;;;;;23.52;36.05;101852.44;5109078;27;45338;-85
2022/07/17 01:07:44;;;;;;;;;5.00;5.00;;;;;23.44;35.95;101843.50;5113456;27;45121;-84
2022/07/17 01:10:11;;;;;;;;;5.00;4.00;;;;;23.62;36.27;101875.69;5112546;27;44962;-83
2022/07/17 01:12:37;;;;;;;;;4.00;3.00;;;;;23.62;36.52;101881.06;5113102;27;46034;-84
2022/07/17 01:15:05;;;;;;;;;3.25;3.25;;;;;23.40;35.95;101857.84;5113430;27;44988;-84
2022/07/17 01:17:31;;;;;;;;;3.50;3.25;;;;;23.57;35.88;101876.59;5125667;27;45203;-83
2022/07/17 01:19:56;;;;;;;;;5.00;4.75;;;;;23.44;36.49;101863.19;5111199;27;45149;-82
2022/07/17 01:22:22;;;;;;;;;4.00;3.25;;;;;23.39;36.57;101851.56;5111299;27;45845;-83
2022/07/17 01:24:47;;;;;;;;;3.00;3.00;;;;;23.24;36.40;101838.16;5113350;27;44977;-83
2022/07/17 01:27:12;;;;;;;;;3.00;3.00;;;;;23.32;36.83;101851.56;5113214;27;45064;-82
2022/07/17 01:29:39;;;;;;;;;4.75;4.00;;;;;23.34;36.81;101863.19;5110371;27;45275;-83
2022/07/17 01:32:05;;;;;;;;;4.25;3.00;;;;;23.29;36.83;101854.25;5112327;27;45242;-85
2022/07/17 01:34:31;;;;;;;;;3.50;3.50;;;;;23.30;36.59;101867.69;5111492;27;45379;-83
2022/07/17 01:36:57;;;;;;;;;4.00;4.00;;;;;23.37;36.48;101884.66;5113074;27;45043;-84
2022/07/17 01:39:52;;;;;;;;;4.25;3.00;;;;;23.22;36.89;101857.84;5107271;27;45223;-83
2022/07/17 01:42:08;;;;;;;;;4.00;3.25;;;;;23.14;37.29;101847.09;5112609;27;45693;-84
2022/07/17 01:44:34;;;;;;;;;4.00;3.00;;;;;23.26;36.70;101870.38;5112651;27;45598;-84
2022/07/17 01:46:59;;;;;;;;;4.50;4.00;;;;;23.09;36.95;101847.09;5125513;27;45600;-83
2022/07/17 01:49:25;;;;;;;;;2.75;2.75;;;;;23.04;37.29;101848.88;5108321;27;45485;-84
2022/07/17 01:51:50;;;;;;;;;3.00;3.00;;;;;23.03;37.08;101852.47;5112813;27;45461;-85
2022/07/17 01:54:15;;;;;;;;;3.25;3.00;;;;;23.02;37.38;101856.03;5113319;27;45147;-82
2022/07/17 01:56:41;;;;;;;;;5.00;5.00;;;;;22.96;38.13;101850.69;5128796;27;45165;-84
2022/07/17 01:59:06;;;;;;;;;3.25;3.00;;;;;22.87;37.67;101835.44;5108267;27;45167;-84
2022/07/17 02:01:31;;;;;;;;;3.00;3.00;;;;;23.02;37.55;101865.88;5126483;27;47138;-83
2022/07/17 02:03:57;;;;;;;;;3.00;2.50;;;;;22.82;37.64;101836.31;5127771;27;45061;-83
2022/07/17 02:06:22;;;;;;;;;3.50;3.00;;;;;22.86;37.67;101851.53;5112950;27;45297;-85
2022/07/17 02:08:50;;;;;;;;;3.75;3.00;;;;;22.79;38.04;101839.88;5111035;27;45145;-82
2022/07/17 02:11:16;;;;;;;;;5.50;5.00;;;;;22.68;38.66;101828.25;5111610;27;45783;-84
2022/07/17 02:13:41;;;;;;;;;3.00;3.00;;;;;22.68;38.31;101841.66;5111887;27;45395;-83
2022/07/17 02:16:07;;;;;;;;;3.00;3.00;;;;;22.59;37.88;101828.22;5107249;27;45362;-86
2022/07/17 02:18:32;;;;;;;;;3.50;3.50;;;;;22.55;38.29;101819.28;5111986;27;45244;-84
2022/07/17 02:20:58;;;;;;;;;4.00;4.00;;;;;22.63;38.82;101844.31;5112171;27;45803;-83
2022/07/17 02:23:23;;;;;;;;;3.50;3.00;;;;;22.51;38.65;101828.22;5108810;27;44983;-83
2022/07/17 02:25:48;;;;;;;;;4.00;4.00;;;;;22.60;38.65;101846.09;5109266;27;45046;-83
2022/07/17 02:28:14;;;;;;;;;4.00;4.00;;;;;22.47;38.41;101831.78;5112256;27;45245;-84
2022/07/17 02:30:39;;;;;;;;;3.00;3.00;;;;;22.49;38.80;101837.13;5111682;27;45237;-83
2022/07/17 02:33:04;;;;;;;;;3.25;3.25;;;;;22.55;38.51;101854.09;5110835;27;45032;-83
2022/07/17 02:35:30;;;;;;;;;4.00;4.00;;;;;22.55;38.78;101850.53;5110601;27;45463;-83
2022/07/17 02:37:55;;;;;;;;;4.00;4.00;;;;;22.57;38.82;101848.78;5111617;27;45046;-83
2022/07/17 02:40:20;;;;;;;;;5.00;4.00;;;;;22.50;38.78;101838.91;5108727;27;47704;-84
2022/07/17 02:42:45;;;;;;;;;3.75;3.00;;;;;22.46;38.80;101837.09;5111762;27;45124;-83
2022/07/17 02:45:11;;;;;;;;;5.25;4.50;;;;;22.49;38.68;101842.50;5109452;27;45073;-85
2022/07/17 02:47:37;;;;;;;;;4.00;4.00;;;;;22.44;38.61;101839.78;5110033;27;45421;-84
2022/07/17 02:50:05;;;;;;;;;5.00;4.00;;;;;22.47;38.64;101852.31;5112208;27;45414;-84
2022/07/17 02:52:31;;;;;;;;;3.00;3.00;;;;;22.47;38.75;101852.31;5111706;27;45045;-85
2022/07/17 02:54:56;;;;;;;;;3.50;3.50;;;;;22.48;39.03;101852.31;5124043;27;45270;-83
2022/07/17 02:57:22;;;;;;;;;3.25;3.25;;;;;22.34;39.13;101832.63;5110048;27;44960;-84
2022/07/17 02:59:47;;;;;;;;;3.50;3.50;;;;;22.44;38.85;101858.53;5107985;27;47440;-83
2022/07/17 03:02:14;;;;;;;;;5.00;5.00;;;;;22.42;38.93;101857.66;5110704;27;44897;-83
2022/07/17 03:04:39;;;;;;;;;4.00;4.00;;;;;22.30;38.91;101842.41;5111548;27;45106;-83
2022/07/17 03:07:05;;;;;;;;;3.25;3.25;;;;;22.26;39.47;101851.31;5111906;27;45002;-84
2022/07/17 03:09:31;;;;;;;;;5.00;4.75;;;;;22.13;38.99;101826.28;5110882;27;46160;-84
2022/07/17 03:11:56;;;;;;;;;3.75;3.00;;;;;22.09;39.98;101816.41;5110010;27;45550;-85
2022/07/17 03:14:21;;;;;;;;;4.00;4.00;;;;;22.17;39.71;101845.97;5111698;27;45085;-85
2022/07/17 03:16:47;;;;;;;;;3.75;2.00;;;;;22.03;40.10;101828.91;5108823;27;45389;-82
2022/07/17 03:19:12;;;;;;;;;3.50;3.50;;;;;22.03;40.25;101840.50;5111375;27;45383;-83
2022/07/17 03:21:38;;;;;;;;;3.00;3.00;;;;;22.01;40.30;101849.38;5108222;27;45300;-85
2022/07/17 03:24:04;;;;;;;;;4.00;4.00;;;;;22.03;40.19;101855.66;5115577;27;45110;-83
2022/07/17 03:26:29;;;;;;;;;3.50;3.50;;;;;21.84;40.81;101831.47;5130348;27;45245;-83
2022/07/17 03:28:54;;;;;;;;;4.00;4.00;;;;;21.74;40.45;101820.72;5114863;27;45065;-85
2022/07/17 03:31:20;;;;;;;;;3.25;3.00;;;;;21.86;40.51;101850.19;5113305;27;44980;-83
2022/07/17 03:33:45;;;;;;;;;3.00;2.75;;;;;21.85;40.64;101865.38;5113586;27;45082;-82
2022/07/17 03:36:10;;;;;;;;;4.00;4.00;;;;;21.74;40.46;101842.13;5113424;27;45128;-84
2022/07/17 03:38:36;;;;;;;;;4.00;4.00;;;;;21.72;40.93;101849.22;5114970;27;47273;-83
2022/07/17 03:41:01;;;;;;;;;3.75;3.75;;;;;21.61;40.97;101833.09;5114292;27;45216;-84
2022/07/17 03:43:26;;;;;;;;;3.75;3.75;;;;;21.64;41.25;101851.88;5113290;27;45119;-83
2022/07/17 03:45:52;;;;;;;;;3.00;3.00;;;;;21.63;41.29;101859.00;5114673;27;44935;-85
2022/07/17 03:48:17;;;;;;;;;4.75;4.00;;;;;21.36;41.15;101824.00;5114231;27;45502;-83
2022/07/17 03:50:43;;;;;;;;;4.00;3.50;;;;;21.47;41.86;101856.19;5112235;27;45033;-83
2022/07/17 03:53:08;;;;;;;;;3.75;3.75;;;;;21.40;42.01;101855.25;5111147;27;44877;-84
2022/07/17 03:55:34;;;;;;;;;4.00;3.25;;;;;21.33;42.07;101850.75;5112952;27;45276;-83
2022/07/17 03:57:59;;;;;;;;;3.50;3.50;;;;;21.28;42.17;101844.41;5114691;27;45507;-84
2022/07/17 04:00:25;;;;;;;;;4.00;3.75;;;;;21.23;42.37;101848.81;5114136;27;44960;-83
2022/07/17 04:02:50;;;;;;;;;3.00;3.00;;;;;21.17;42.36;101841.66;5113452;27;45011;-85
2022/07/17 04:05:16;;;;;;;;;5.75;5.75;;;;;21.09;42.70;101833.59;5114274;27;44901;-84
2022/07/17 04:07:43;;;;;;;;;5.00;3.00;;;;;21.15;42.85;101853.22;5111181;27;46891;-84
2022/07/17 04:10:10;;;;;;;;;4.00;3.75;;;;;21.17;42.88;101865.72;5129737;27;45201;-82
2022/07/17 04:12:36;;;;;;;;;5.00;4.00;;;;;20.98;43.24;101840.59;5114312;27;44960;-85
2022/07/17 04:15:02;;;;;;;;;3.75;3.75;;;;;20.96;42.79;101839.69;5127512;27;45116;-83
2022/07/17 04:17:28;;;;;;;;;3.00;3.00;;;;;20.98;43.12;101856.63;5113589;27;46565;-85
2022/07/17 04:19:53;;;;;;;;;3.00;3.00;;;;;20.82;43.32;101835.97;5114268;27;45010;-85
2022/07/17 04:22:19;;;;;;;;;5.00;4.00;;;;;20.86;43.39;101860.06;5112147;27;45156;-83
2022/07/17 04:24:46;;;;;;;;;3.00;3.00;;;;;20.97;43.69;101876.22;5113835;27;45324;-85
2022/07/17 04:27:11;;;;;;;;;3.25;3.00;;;;;20.97;43.70;101880.66;5114360;27;46002;-84
2022/07/17 04:29:38;;;;;;;;;4.00;3.25;;;;;21.00;44.02;101892.31;5113090;27;45320;-83
2022/07/17 04:32:04;;;;;;;;;3.00;3.00;;;;;20.90;43.16;101863.69;5112589;27;45035;-82
2022/07/17 04:34:30;;;;;;;;;4.00;4.00;;;;;21.11;42.81;101879.91;5107979;27;45324;-83
2022/07/17 04:36:55;;;;;;;;;3.25;3.00;;;;;21.04;42.98;101866.50;5128243;27;47412;-85
2022/07/17 04:39:23;;;;;;;;;3.75;3.00;;;;;21.22;43.06;101895.16;5111725;27;45213;-84
2022/07/17 04:41:48;;;;;;;;;4.25;3.75;;;;;21.07;42.98;101871.84;5111061;27;45121;-83
2022/07/17 04:44:13;;;;;;;;;2.00;2.00;;;;;21.15;43.32;101878.19;5111386;27;45289;-84
2022/07/17 04:46:39;;;;;;;;;4.00;3.00;;;;;21.30;42.64;101899.75;5111917;27;45310;-83
2022/07/17 04:49:04;;;;;;;;;4.00;4.00;;;;;21.22;42.22;101876.44;5112234;27;45185;-83
2022/07/17 04:51:29;;;;;;;;;3.50;3.50;;;;;21.27;42.45;101882.72;5114049;27;45173;-84
2022/07/17 04:53:55;;;;;;;;;2.75;2.50;;;;;21.26;42.44;101888.97;5114487;27;45333;-83
2022/07/17 04:56:20;;;;;;;;;4.00;4.00;;;;;21.39;42.23;101909.63;5113623;27;48586;-82
2022/07/17 04:58:45;;;;;;;;;4.00;4.00;;;;;21.44;41.95;101901.66;5128796;27;45091;-82
2022/07/17 05:01:10;;;;;;;;;4.50;3.50;;;;;21.41;42.07;101897.16;5109770;27;47546;-83
2022/07/17 05:03:37;;;;;;;;;4.00;3.00;;;;;21.48;41.41;101904.38;5109583;27;45142;-82
2022/07/17 05:06:03;;;;;;;;;3.00;3.00;;;;;21.49;41.46;101892.78;5111114;27;46479;-84
2022/07/17 05:08:28;;;;;;;;;3.25;3.00;;;;;21.51;41.68;101900.81;5113841;27;45019;-83
2022/07/17 05:10:53;;;;;;;;;5.75;5.00;;;;;21.61;41.86;101916.94;5113495;27;44961;-82
2022/07/17 05:13:19;;;;;;;;;5.50;3.25;;;;;21.58;41.74;101908.91;5111604;27;44940;-83
2022/07/17 05:15:44;;;;;;;;;3.00;3.00;;;;;21.59;41.66;101899.09;5110460;27;45712;-84
2022/07/17 05:18:09;;;;;;;;;3.00;3.00;;;;;21.60;41.29;101890.19;5112393;27;45591;-83
2022/07/17 05:20:35;;;;;;;;;4.00;3.25;;;;;21.68;41.30;101906.31;5112585;27;45500;-83
2022/07/17 05:23:00;;;;;;;;;2.00;2.00;;;;;21.74;40.94;101914.38;5129286;27;45224;-83
2022/07/17 05:25:26;;;;;;;;;3.00;3.00;;;;;21.83;41.25;101914.44;5111686;27;46991;-82
2022/07/17 05:27:51;;;;;;;;;2.25;2.25;;;;;21.84;40.86;101914.44;5127796;27;45154;-84
2022/07/17 05:30:17;;;;;;;;;3.25;3.00;;;;;21.94;40.89;101922.53;5112382;27;45122;-83
2022/07/17 05:32:42;;;;;;;;;3.00;2.75;;;;;21.86;40.76;101901.06;5111461;27;45565;-82
2022/07/17 05:35:07;;;;;;;;;3.00;2.50;;;;;21.86;41.16;101898.38;5111791;27;45597;-85
2022/07/17 05:37:33;;;;;;;;;2.50;2.25;;;;;21.89;40.92;101899.31;5110685;27;45315;-82
2022/07/17 05:39:58;;;;;;;;;4.75;3.25;;;;;21.95;40.75;101908.25;5112814;27;44976;-82
2022/07/17 05:42:24;;;;;;;;;3.00;3.00;;;;;22.04;40.73;101914.56;5111346;27;45394;-84
2022/07/17 05:44:49;;;;;;;;;2.00;2.00;;;;;21.93;40.75;101888.63;5111163;27;45265;-84
2022/07/17 05:47:14;;;;;;;;;4.00;4.00;;;;;21.81;40.73;101860.88;5108225;27;45147;-84
2022/07/17 05:49:40;;;;;;;;;4.00;4.00;;;;;22.09;40.75;101909.25;5108794;27;45234;-84
2022/07/17 05:52:05;;;;;;;;;4.00;2.75;;;;;22.04;40.93;101885.13;5112194;27;45368;-85
2022/07/17 05:54:32;;;;;;;;;2.75;2.75;;;;;22.20;40.46;101906.66;5111720;27;45734;-82
2022/07/17 05:56:58;;;;;;;;;2.75;2.00;;;;;22.32;40.21;101918.34;5112429;27;45132;-83
2022/07/17 05:59:23;;;;;;;;;4.00;4.00;;;;;22.32;40.15;101915.66;5112866;27;44924;-83
2022/07/17 06:01:48;;;;;;;;;3.00;3.00;;;;;22.21;40.26;101890.59;5112238;27;45058;-83
2022/07/17 06:04:14;;;;;;;;;3.50;3.50;;;;;22.32;40.18;101901.38;5128267;27;46743;-84
2022/07/17 06:06:39;;;;;;;;;3.50;3.00;;;;;22.47;39.84;101930.91;5109574;27;46658;-83
2022/07/17 06:09:04;;;;;;;;;3.00;2.50;;;;;22.45;40.08;101913.03;5112813;27;45078;-83
2022/07/17 06:11:30;;;;;;;;;3.00;3.00;;;;;22.49;39.85;101913.03;5112152;27;45038;-84
2022/07/17 06:13:55;;;;;;;;;3.00;3.00;;;;;22.56;39.65;101925.59;5111402;27;45334;-84
2022/07/17 06:16:20;;;;;;;;;3.50;3.00;;;;;22.49;39.65;101910.38;5124936;27;45071;-84
2022/07/17 06:18:46;;;;;;;;;2.25;2.25;;;;;22.62;39.80;101933.66;5111971;27;45345;-85
2022/07/17 06:21:11;;;;;;;;;2.67;2.33;;;;;22.54;39.60;101903.25;5110624;27;48586;-83
2022/07/17 06:23:36;;;;;;;;;4.75;4.75;;;;;22.63;39.49;101914.00;5107188;27;47353;-82
2022/07/17 06:26:02;;;;;;;;;2.50;2.50;;;;;22.62;39.21;101906.84;5110339;27;45270;-83
2022/07/17 06:28:27;;;;;;;;;3.25;2.50;;;;;22.73;39.36;101928.31;5110942;27;45038;-82
2022/07/17 06:30:52;;;;;;;;;3.00;3.00;;;;;22.67;39.55;101913.13;5112431;27;45041;-84
2022/07/17 06:33:18;;;;;;;;;3.00;3.00;;;;;22.73;38.98;101925.66;5124336;27;47117;-83
2022/07/17 06:35:43;;;;;;;;;3.00;3.00;;;;;22.76;39.04;101920.31;5110697;27;45179;-84
2022/07/17 06:38:10;;;;;;;;;3.25;3.25;;;;;22.88;39.31;101932.84;5112662;27;45265;-84
2022/07/17 06:40:36;;;;;;;;;4.75;4.00;;;;;22.75;39.13;101904.19;5127827;27;45180;-83
2022/07/17 06:43:01;;;;;;;;;3.25;3.00;;;;;22.95;39.48;101945.38;5110911;27;45744;-83
2022/07/17 06:45:26;;;;;;;;;3.50;3.00;;;;;22.95;39.25;101933.78;5109535;27;44979;-85
2022/07/17 06:47:51;;;;;;;;;3.50;2.50;;;;;22.88;39.24;101919.44;5109429;27;45139;-83
2022/07/17 06:50:17;;;;;;;;;2.00;2.00;;;;;22.88;39.09;101906.03;5111742;27;45245;-85
2022/07/17 06:52:42;;;;;;;;;3.00;3.00;;;;;22.87;39.44;101898.88;5111708;27;52198;-84
2022/07/17 06:55:08;;;;;;;;;3.50;3.00;;;;;22.84;39.07;101888.13;5108854;27;45223;-84
2022/07/17 06:57:33;;;;;;;;;2.25;2.25;;;;;23.05;39.15;101916.81;5111377;27;45106;-85
2022/07/17 06:59:58;;;;;;;;;2.75;2.50;;;;;23.10;38.66;101926.69;5109346;27;45226;-85
2022/07/17 07:02:24;;;;;;;;;2.75;2.75;;;;;23.12;39.04;101916.84;5109388;27;45799;-85
2022/07/17 07:04:49;;;;;;;;;4.00;4.00;;;;;23.26;39.11;101926.69;5109872;27;45037;-84
2022/07/17 07:07:14;;;;;;;;;3.00;3.00;;;;;23.25;38.77;101923.13;5110396;27;46110;-85
2022/07/17 07:09:40;;;;;;;;;3.75;3.75;;;;;23.40;38.74;101931.19;5111888;27;44919;-84
2022/07/17 07:12:07;;;;;;;;;4.00;3.50;;;;;23.43;38.31;101931.16;5108506;27;49624;-82
2022/07/17 07:14:32;;;;;;;;;3.25;3.25;;;;;23.43;38.47;101927.59;5111703;27;45141;-82
2022/07/17 07:16:58;;;;;;;;;3.00;3.00;;;;;23.45;38.38;101925.81;5109492;27;45042;-84
2022/07/17 07:19:23;;;;;;;;;4.25;3.25;;;;;23.49;38.54;101924.00;5126917;27;44983;-85
2022/07/17 07:21:48;;;;;;;;;4.00;4.00;;;;;23.48;37.85;101919.53;5111857;27;45856;-84
2022/07/17 07:24:14;;;;;;;;;3.00;3.00;;;;;23.61;38.53;101932.97;5111600;27;44871;-83
2022/07/17 07:26:39;;;;;;;;;2.25;2.25;;;;;23.59;38.87;101923.13;5124852;27;45023;-85
2022/07/17 07:29:05;;;;;;;;;3.00;3.00;;;;;23.71;38.39;101936.56;5108820;27;45373;-85
2022/07/17 07:31:30;;;;;;;;;3.00;3.00;;;;;23.57;38.32;101903.44;5106557;27;47441;-83
2022/07/17 07:33:55;;;;;;;;;3.25;3.00;;;;;23.68;38.30;101918.66;5110388;27;44908;-84
2022/07/17 07:36:21;;;;;;;;;3.75;3.50;;;;;23.82;38.53;101920.47;5109966;27;45215;-84
2022/07/17 07:38:46;;;;;;;;;3.00;3.00;;;;;23.88;38.08;101915.97;5108374;27;45094;-84
2022/07/17 07:41:11;;;;;;;;;3.75;3.50;;;;;23.89;38.29;101903.41;5110769;27;45085;-83
2022/07/17 07:43:37;;;;;;;;;3.75;3.00;;;;;24.01;38.07;101913.25;5108110;27;45366;-83
2022/07/17 07:46:03;;;;;;;;;4.25;4.00;;;;;23.93;37.90;101881.94;5105717;27;45287;-84
2022/07/17 07:48:29;;;;;;;;;5.25;4.75;;;;;24.22;37.81;101913.19;5108815;27;45169;-85
2022/07/17 07:50:54;;;;;;;;;4.00;4.00;;;;;24.19;38.16;101900.69;5109731;27;46188;-85
2022/07/17 07:53:20;;;;;;;;;4.25;4.25;;;;;24.17;37.96;101888.13;5111207;27;44908;-83
2022/07/17 07:55:45;;;;;;;;;4.00;3.00;;;;;24.29;37.53;101914.09;5125031;27;45232;-86
2022/07/17 07:58:12;;;;;;;;;4.00;4.00;;;;;24.41;37.73;101927.50;5107424;27;45323;-84
2022/07/17 08:00:39;;;;;;;;;5.25;5.00;;;;;24.41;37.90;101922.13;5109426;27;45848;-83
2022/07/17 08:03:05;;;;;;;;;3.25;3.25;;;;;24.49;38.04;101932.88;5104459;27;45323;-83
2022/07/17 08:05:31;;;;;;;;;4.25;4.25;;;;;24.39;37.58;101914.09;5105780;27;45446;-85
2022/07/17 08:07:56;;;;;;;;;4.50;4.50;;;;;24.46;37.13;101928.38;5111005;27;45130;-84
2022/07/17 08:10:22;;;;;;;;;3.50;3.50;;;;;24.40;37.12;101914.97;5114159;27;45975;-83
2022/07/17 08:12:47;;;;;;;;;4.00;4.00;;;;;24.50;37.89;101921.22;5112252;27;45475;-83
2022/07/17 08:15:18;;;;;;;;;3.25;3.25;;;;;24.35;38.31;101895.25;5114253;27;45176;-83
2022/07/17 08:17:44;;;;;;;;;3.00;3.00;;;;;24.51;37.79;101915.81;5113855;27;44908;-84
2022/07/17 08:20:11;;;;;;;;;3.00;3.00;;;;;24.52;37.31;101909.53;5114384;27;45865;-83
2022/07/17 08:22:36;;;;;;;;;4.00;4.00;;;;;24.55;37.38;101904.16;5112632;27;45369;-83
2022/07/17 08:25:02;;;;;;;;;2.00;1.75;;;;;24.57;37.40;101906.81;5111519;27;45510;-83
2022/07/17 08:27:27;;;;;;;;;2.50;2.50;;;;;24.62;37.02;101905.91;5111149;27;45208;-82
2022/07/17 08:29:53;;;;;;;;;6.00;5.00;;;;;24.75;37.34;101921.97;5111459;27;47202;-82
2022/07/17 08:32:18;;;;;;;;;5.00;4.00;;;;;24.80;37.71;101912.97;5110560;27;45047;-83
2022/07/17 08:34:44;;;;;;;;;3.50;3.50;;;;;24.82;37.13;101915.66;5112572;27;45361;-83
2022/07/17 08:37:09;;;;;;;;;3.75;3.75;;;;;24.90;37.59;101922.78;5109672;27;45184;-84
2022/07/17 08:39:34;;;;;;;;;3.50;3.50;;;;;24.84;37.61;101897.72;5110227;27;47152;-83
2022/07/17 08:42:02;;;;;;;;;3.00;3.00;;;;;25.02;37.06;101921.81;5107996;27;45191;-82
2022/07/17 08:44:28;;;;;;;;;4.25;4.00;;;;;24.85;36.69;101894.13;5114097;27;45203;-84
2022/07/17 08:46:54;;;;;;;;;3.75;3.00;;;;;25.02;36.80;101915.53;5127625;27;45410;-84
2022/07/17 08:49:22;;;;;;;;;3.75;3.75;;;;;24.98;36.76;101898.53;5109661;27;47844;-84
2022/07/17 08:51:47;;;;;;;;;4.00;3.75;;;;;25.15;36.85;101933.44;5111854;27;45323;-85
2022/07/17 08:54:14;;;;;;;;;2.00;2.00;;;;;25.20;36.22;101932.47;5107531;27;45260;-84
2022/07/17 08:56:40;;;;;;;;;1.75;1.75;;;;;25.21;36.79;101918.13;5111001;27;45235;-83
2022/07/17 08:59:05;;;;;;;;;3.00;3.00;;;;;25.18;36.14;101903.81;5112446;27;46154;-84
2022/07/17 09:01:31;;;;;;;;;4.00;4.00;;;;;25.29;36.01;101907.31;5129556;27;45119;-82
2022/07/17 09:04:05;;;;;;;;;3.00;3.00;;;;;25.18;36.14;101893.06;5113586;27;45195;-85
2022/07/17 09:06:34;;;;;;;;;4.25;3.75;;;;;25.40;36.17;101909.91;5111975;27;45301;-83
2022/07/17 09:09:05;;;;;;;;;2.75;2.75;;;;;25.61;36.81;101919.59;5110609;27;45193;-83
2022/07/17 09:11:47;;;;;;;;;4.00;4.00;;;;;25.68;36.27;101911.47;5110459;27;45244;-84
2022/07/17 09:14:13;;;;;;;;;4.75;4.75;;;;;25.86;36.11;101925.69;5113437;27;45008;-83
2022/07/17 09:16:56;;;;;;;;;3.00;3.00;;;;;25.77;35.40;101883.59;5109556;27;45165;-83
2022/07/17 09:19:28;;;;;;;;;4.00;4.00;;;;;25.98;35.41;101914.78;5112767;27;45478;-83
2022/07/17 09:22:20;;;;;;;;;4.00;4.00;;;;;25.92;35.33;101902.28;5112849;27;45118;-83
2022/07/17 09:24:51;;;;;;;;;4.50;4.25;;;;;26.02;35.01;101915.66;5111906;27;44905;-84
2022/07/17 09:27:30;;;;;;;;;3.75;3.75;;;;;26.09;34.61;101915.56;5113003;27;45016;-84
2022/07/17 09:30:09;;;;;;;;;3.50;3.00;;;;;25.99;35.08;101887.81;5113293;27;45924;-85
2022/07/17 09:32:36;;;;;;;;;5.00;4.00;;;;;26.18;34.74;101902.00;5109209;27;45287;-83
2022/07/17 09:35:05;;;;;;;;;4.00;3.25;;;;;26.29;34.38;101914.44;5113171;27;44993;-84
2022/07/17 09:37:32;;;;;;;;;5.75;5.00;;;;;26.31;34.74;101909.94;5110956;27;44888;-83
2022/07/17 09:39:58;;;;;;;;;3.00;3.00;;;;;26.31;34.32;101899.16;5108604;27;46356;-85
2022/07/17 09:42:32;;;;;;;;;3.00;3.00;;;;;26.37;34.77;101899.09;5110255;27;45172;-84
2022/07/17 09:45:05;;;;;;;;;4.00;4.00;;;;;26.55;34.27;101927.63;5111579;27;44899;-83
2022/07/17 09:47:33;;;;;;;;;5.00;5.00;;;;;26.59;34.63;101926.69;5127290;27;45293;-83
2022/07/17 09:50:00;;;;;;;;;4.00;3.00;;;;;26.46;33.69;101899.88;5109733;27;45289;-84
2022/07/17 09:52:31;;;;;;;;;3.00;3.00;;;;;26.53;33.88;101908.78;5111938;27;45430;-83
2022/07/17 09:54:59;;;;;;;;;4.25;4.00;;;;;26.59;33.91;101913.19;5112341;27;45003;-85
2022/07/17 09:57:28;;;;;;;;;4.75;4.50;;;;;26.51;34.43;101893.56;5112113;27;45201;-83
2022/07/17 09:59:55;;;;;;;;;3.75;3.25;;;;;26.57;34.24;101891.66;5112420;27;46397;-84
2022/07/17 10:02:22;;;;;;;;;4.00;4.00;;;;;26.55;34.03;101871.00;5111026;27;45034;-83
2022/07/17 10:04:48;;;;;;;;;5.00;5.00;;;;;26.75;33.61;101896.81;5127593;27;44958;-83
2022/07/17 10:07:13;;;;;;;;;4.00;4.00;;;;;26.89;33.78;101909.19;5112324;27;45108;-82
2022/07/17 10:09:39;;;;;;;;;2.75;2.75;;;;;26.90;33.28;101906.50;5112256;27;45110;-84
2022/07/17 10:12:06;;;;;;;;;4.00;4.00;;;;;27.10;33.11;101916.13;5112549;27;45470;-83
2022/07/17 10:14:33;;;;;;;;;4.00;3.00;;;;;27.17;32.52;101904.31;5112527;27;45137;-84
2022/07/17 10:17:10;;;;;;;;;4.00;4.00;;;;;27.22;33.03;101900.59;5110594;27;45130;-84
2022/07/17 10:19:48;;;;;;;;;4.00;4.00;;;;;27.34;32.82;101918.44;5109678;27;45296;-83
2022/07/17 10:22:14;;;;;;;;;4.00;4.00;;;;;27.29;32.56;101903.19;5110719;27;45387;-85
2022/07/17 10:24:49;;;;;;;;;4.25;4.25;;;;;27.30;32.54;101897.81;5110485;27;45000;-83
2022/07/17 10:27:29;;;;;;;;;6.00;6.00;;;;;27.27;33.77;101889.75;5110735;27;45177;-85
2022/07/17 10:30:05;;;;;;;;;4.00;4.00;;;;;27.37;32.54;101920.19;5111292;27;45487;-85
2022/07/17 10:32:31;;;;;;;;;4.00;3.50;;;;;27.20;32.25;101913.25;5110945;27;44999;-84
2022/07/17 10:35:03;;;;;;;;;3.00;3.00;;;;;27.22;32.15;101913.22;5127985;27;45046;-84
2022/07/17 10:37:40;;;;;;;;;4.25;4.25;;;;;27.26;32.52;101905.06;5111490;27;45035;-85
2022/07/17 10:40:14;;;;;;;;;4.25;4.25;;;;;27.53;32.04;101937.91;5112181;27;46064;-84
2022/07/17 10:42:44;;;;;;;;;4.50;4.50;;;;;27.64;32.13;101932.34;5111539;27;44987;-85
2022/07/17 10:45:12;;;;;;;;;5.00;5.00;;;;;27.62;31.98;101923.34;5110092;27;44980;-83
2022/07/17 10:47:54;;;;;;;;;5.00;5.00;;;;;27.76;31.69;101937.56;5110875;27;44929;-84
2022/07/17 10:50:35;;;;;;;;;3.75;3.75;;;;;27.64;31.59;101919.72;5127120;27;46459;-83
2022/07/17 10:53:03;;;;;;;;;4.00;4.00;;;;;27.50;31.33;101902.88;5111928;27;45385;-83
2022/07/17 10:55:29;;;;;;;;;3.50;3.50;;;;;27.58;31.81;101916.22;5112159;27;44995;-83
2022/07/17 10:57:55;;;;;;;;;5.00;4.00;;;;;27.63;31.73;101936.81;5105735;27;45473;-83
2022/07/17 11:00:22;;;;;;;;;4.00;4.00;;;;;27.56;31.63;101909.97;5111519;27;45667;-84
2022/07/17 11:02:47;;;;;;;;;3.75;3.75;;;;;27.60;31.73;101912.59;5110174;27;45409;-83
2022/07/17 11:05:14;;;;;;;;;5.00;4.25;;;;;27.76;31.83;101938.44;5111674;27;44923;-83
2022/07/17 11:07:54;;;;;;;;;5.00;5.00;;;;;27.81;31.25;101922.16;5109769;27;45146;-84
2022/07/17 11:10:22;;;;;;;;;5.25;5.00;;;;;27.84;31.71;101924.81;5112008;27;45711;-83
2022/07/17 11:12:47;;;;;;;;;5.00;5.00;;;;;27.84;31.89;101915.81;5111438;27;45334;-84
2022/07/17 11:15:13;;;;;;;;;3.50;3.50;;;;;27.80;31.58;101900.56;5111641;27;45105;-84
2022/07/17 11:17:44;;;;;;;;;4.75;4.75;;;;;27.85;31.03;101896.84;5108954;27;45058;-84
2022/07/17 11:20:10;;;;;;;;;4.00;4.00;;;;;27.88;30.86;101888.72;5109748;27;46025;-84
2022/07/17 11:22:35;;;;;;;;;4.25;4.25;;;;;27.90;30.92;101881.44;5110086;27;45082;-83